Rakitna Rakitna

Učna pot


Napoved ravni onesnaženosti z delci PM10 več informacij Air pollution


Požarna ogroženost več informacij Fire risk


Moja kamera več informacij My webcam


Cestna kamera več informacij Road camera


ARSO, spremljajte nas več informacij


Obiščite še:

Template documentacija
in prenos

in še drugo stran



Veter Od: 22-02-2019 17:00 Do: 23-02-2019 23:59 Opozorilo za: Veter Stopnja: Rumena info button

METAR v bližini

   
LJLJ - Ljubljana
Posodobljeno: 22-02-2019 11:30
delno oblačno  
delno oblačno  
   Veter: SSZ 3.7 km/h
Veter: SSZ 3.7 km/h
Temperatura: 13°C
Točka rosišča: 4°C
Vlažnost: 55%
Zračni tlak: 1023 hPa
Oblaki: delno oblačno
Vidljivost: več kot 10 km
Podrobnosti o oblakih: nekaj oblakov 6500 ft,
delno oblačno 7500 ft
LJLJ 221030Z 34002KT 9999 FEW065 SCT075 13/04 Q1023 WS ALL RWY NOSIG
LJCE - Cerklje ob Krki
Posodobljeno: 22-02-2019 11:30
pretežno oblačno  
pretežno oblačno  
   Veter: Jug 5.6 km/h
Veter: Jug 5.6 km/h
Temperatura: 10°C
Občutek mraza: 9°C
Točka rosišča: 6°C
Vlažnost: 76%
Zračni tlak: 1024 hPa
Oblaki: pretežno oblačno
Vidljivost: več kot 10 km
Podrobnosti o oblakih: nekaj oblakov 4500 ft,
delno oblačno 6500 ft,
pretežno oblačno 10000 ft
LJCE 221030Z 18003KT 140V210 9999 FEW045 SCT065 BKN100 10/06 Q1024 RMK BLU
LJMB - Maribor
Posodobljeno: 22-02-2019 11:30
pretežno oblačno  
pretežno oblačno  
   Veter: SSZ 25.9 km/h
Veter: SSZ 25.9 km/h
Temperatura: 12°C
Točka rosišča: 4°C
Vlažnost: 58%
Zračni tlak: 1024 hPa
Oblaki: pretežno oblačno
Vidljivost: več kot 10 km
Podrobnosti o oblakih: nekaj oblakov 5000 ft,
pretežno oblačno 10000 ft
LJMB 221030Z 34014KT 9999 FEW050 BKN100 12/04 Q1024
LJPZ - Portorož
Posodobljeno: 22-02-2019 11:30
meglica, pretežno oblačno  
meglica, pretežno oblačno  
   Veter: ZSZ 5.6 km/h
Veter: ZSZ 5.6 km/h
Temperatura: 7°C
Občutek mraza: 6°C
Točka rosišča: 6°C
Vlažnost: 93%
Zračni tlak: 1024 hPa
Oblaki: pretežno oblačno
Vidljivost: 1 km
Podrobnosti o oblakih: pretežno oblačno 100 ft
LJPZ 221030Z 29003KT 230V320 1000 R15/1100N BR BKN001 07/06 Q1024
LDRI - Rijeka, Airport, Croatia
Posodobljeno: 22-02-2019 11:30
nekaj oblakov  
nekaj oblakov  
   Veter: Zahod 11.1 km/h
Veter: Zahod 11.1 km/h
Temperatura: 10°C
Občutek mraza: 8°C
Točka rosišča: 6°C
Vlažnost: 76%
Zračni tlak: 1023 hPa
Oblaki: nekaj oblakov
Vidljivost: več kot 10 km
Podrobnosti o oblakih: nekaj oblakov 4700 ft
LDRI 221030Z 28006KT 230V330 9999 FEW047 10/06 Q1023
LOWK - Klagenfurt, Airport, Avstia
Posodobljeno: 22-02-2019 11:20
pretežno oblačno  
pretežno oblačno  
   Veter: različen 3.7 km/h
Veter: različen 3.7 km/h
Temperatura: 7°C
Točka rosišča: 1°C
Vlažnost: 66%
Zračni tlak: 1026 hPa
Oblaki: pretežno oblačno
Vidljivost: več kot 10 km
Podrobnosti o oblakih: nekaj oblakov 5000 ft,
delno oblačno 6000 ft,
pretežno oblačno 7000 ft
LOWK 221020Z VRB02KT 9999 FEW050 SCT060 BKN070 07/01 Q1026 NOSIG

Script developed by  Saratoga-weather.org Adapted for the template by  Weerstation Leuven

Vremenski podatki so objavljeni na:

Weather Underground

Slovenska vremenska mreža

WeatherlinkIP

MapView

Geostik

Oprema, ki se uporablja:

Vremenska postaja
Davis VP2+ ventilirana

Vremenski program
WeatherLink

Vremenski server
Shuttle XS35V4

Ponudnik
Vremensko društvo ZEVS

Davis VP2+ ventilirana

WeatherLink

Shuttle XS35V4

Vremensko društvo ZEVS

Meteorološki podatki vremenske postaje Rakitna so neuradni, meteorološka postaja sama pa ni del državne mreže Agencije Republike Slovenije za okolje (ARSO),
je pa vključena v Vremensko društvo ZEVS. Prikazani podatki so izmerjeni točno, vendar so zgolj informativni in nimajo značaja uradnega podatka.

Podatke meri vremenska postaja "Davis VP2+ ventilirana" od 05.03.2011 dalje.

Opozarjamo, da ne prevzamemo odgovornosti za morebitno nastalo škodo, ki bi nastala zaradi odločitve, sprejete na osnovi teh podatkov!